Time;durP1;ratioP1;P1;durP2;ratioP2;P2;SDS_P1;SDS_P2;PMS_P1;PMS_P2;Temp;Humidity;BMP_temperature;BMP_pressure;BME280_temperature;BME280_humidity;BME280_pressure;Samples;Min_cycle;Max_cycle;Signal;HPM_P1;HPM_P2
2022/06/07 00:01:27;;;;;;;4.17;0.73;;;;;;;20.10;51.53;100503.03;5082375;28;20242;-70
2022/06/07 00:03:55;;;;;;;2.50;1.00;;;;;;;20.09;51.52;100496.81;5081609;28;20302;-70
2022/06/07 00:06:32;;;;;;;5.80;1.10;;;;;;;20.02;51.70;100495.16;5085599;28;20199;-70
2022/06/07 00:09:00;;;;;;;3.83;0.93;;;;;;;20.00;51.99;100497.25;5087383;28;20213;-70
2022/06/07 00:11:30;;;;;;;2.80;0.70;;;;;;;20.04;51.57;100498.50;5086735;28;20203;-70
2022/06/07 00:14:02;;;;;;;5.07;0.93;;;;;;;20.01;51.63;100493.50;5084203;28;20302;-70
2022/06/07 00:16:30;;;;;;;5.07;1.00;;;;;;;19.96;51.64;100494.16;5085036;28;20208;-70
2022/06/07 00:18:58;;;;;;;3.10;1.00;;;;;;;20.02;51.64;100489.78;5083787;28;20311;-70
2022/06/07 00:21:29;;;;;;;4.57;0.80;;;;;;;20.04;51.53;100493.94;5086845;28;20199;-71
2022/06/07 00:23:58;;;;;;;3.60;1.10;;;;;;;20.07;51.07;100493.50;5083841;28;20256;-71
2022/06/07 00:26:26;;;;;;;2.67;0.73;;;;;;;20.04;51.40;100491.25;5082238;28;20248;-71
2022/06/07 00:28:54;;;;;;;1.83;0.80;;;;;;;20.00;51.39;100499.94;5081802;28;20766;-71
2022/06/07 00:31:27;;;;;;;2.83;1.00;;;;;;;20.00;51.71;100492.69;5082911;28;20199;-71
2022/06/07 00:33:58;;;;;;;2.33;1.10;;;;;;;19.96;52.01;100494.16;5085049;28;20545;-71
2022/06/07 00:36:27;;;;;;;4.00;1.00;;;;;;;20.00;51.86;100497.25;5086533;28;20691;-71
2022/06/07 00:38:54;;;;;;;2.73;0.80;;;;;;;20.03;51.83;100496.84;5082722;28;20211;-71
2022/06/07 00:41:22;;;;;;;2.07;0.90;;;;;;;20.00;52.15;100494.53;5085660;28;20543;-71
2022/06/07 00:44:29;;;;;;;1.90;0.87;;;;;;;19.94;52.33;100490.84;5088030;28;20240;-71
2022/06/07 00:47:01;;;;;;;4.47;1.17;;;;;;;19.94;52.77;100492.69;5081789;28;20317;-71
2022/06/07 00:49:33;;;;;;;3.20;1.00;;;;;;;19.90;52.69;100487.72;5086633;28;20330;-70
2022/06/07 00:52:03;;;;;;;4.37;1.20;;;;;;;19.82;52.89;100482.56;5090070;28;20674;-71
2022/06/07 00:54:32;;;;;;;2.77;0.93;;;;;;;19.79;53.41;100482.97;5095760;28;20635;-71
2022/06/07 00:57:01;;;;;;;1.90;1.03;;;;;;;19.83;53.35;100478.00;5090219;28;20338;-71
2022/06/07 00:59:30;;;;;;;2.83;1.47;;;;;;;19.84;52.77;100488.56;5090474;28;20297;-71
2022/06/07 01:01:59;;;;;;;4.30;1.00;;;;;;;19.78;53.29;100484.03;5084566;28;20219;-71
2022/06/07 01:04:27;;;;;;;3.60;0.73;;;;;;;19.78;53.21;100489.41;5085486;28;20207;-71
2022/06/07 01:12:27;;;;;;;3.30;1.10;;;;;;;19.71;53.41;100483.19;5082876;28;20264;-72
2022/06/07 01:14:54;;;;;;;3.63;0.90;;;;;;;19.71;53.18;100483.19;5084574;28;20285;-70
2022/06/07 01:17:24;;;;;;;2.60;1.30;;;;;;;19.69;53.21;100490.66;5087900;28;20694;-70
2022/06/07 01:19:52;;;;;;;4.30;1.20;;;;;;;19.70;53.65;100491.47;5084930;28;20214;-70
2022/06/07 01:22:22;;;;;;;9.77;1.37;;;;;;;19.58;53.47;100477.81;5092547;28;20716;-71
2022/06/07 01:24:53;;;;;;;3.47;1.17;;;;;;;19.50;54.02;100478.00;5088011;28;20285;-72
2022/06/07 01:27:22;;;;;;;2.73;0.87;;;;;;;19.43;54.13;100483.34;5088758;28;20319;-72
2022/06/07 01:29:50;;;;;;;1.43;1.00;;;;;;;19.48;54.69;100475.53;5087656;28;20241;-71
2022/06/07 01:32:18;;;;;;;4.07;1.20;;;;;;;19.53;54.39;100482.97;5087247;28;20198;-71
2022/06/07 01:34:46;;;;;;;2.13;1.00;;;;;;;19.56;54.75;100479.88;5088214;28;20222;-71
2022/06/07 01:37:16;;;;;;;4.03;1.07;;;;;;;19.60;55.03;100469.53;5090952;28;20245;-71
2022/06/07 01:42:34;;;;;;;2.70;1.20;;;;;;;19.56;54.47;100466.41;5092253;28;20614;-71
2022/06/07 01:45:02;;;;;;;5.20;0.90;;;;;;;19.61;54.70;100471.19;5087913;28;20203;-71
2022/06/07 01:47:33;;;;;;;2.20;0.90;;;;;;;19.54;54.46;100465.78;5088068;28;20238;-72
2022/06/07 01:50:02;;;;;;;5.67;1.20;;;;;;;19.54;54.86;100469.31;5090361;28;20239;-71
2022/06/07 01:52:31;;;;;;;2.67;1.10;;;;;;;19.59;55.08;100459.81;5090619;28;20739;-71
2022/06/07 01:55:01;;;;;;;1.83;0.80;;;;;;;19.63;54.30;100467.25;5090904;28;20248;-71
2022/06/07 01:57:30;;;;;;;1.80;0.90;;;;;;;19.59;54.34;100463.31;5094658;28;20203;-71
2022/06/07 01:59:59;;;;;;;4.30;1.20;;;;;;;19.61;54.52;100461.25;5084722;28;20302;-71
2022/06/07 02:02:28;;;;;;;2.57;1.03;;;;;;;19.59;54.43;100462.50;5085951;28;20290;-71
2022/06/07 02:04:56;;;;;;;4.07;1.10;;;;;;;19.55;54.64;100462.06;5089685;28;20259;-72
2022/06/07 02:07:25;;;;;;;2.37;0.97;;;;;;;19.56;54.87;100458.34;5091543;28;20721;-70
2022/06/07 02:09:53;;;;;;;2.10;1.00;;;;;;;19.46;54.86;100458.72;5094259;28;20729;-71
2022/06/07 02:12:22;;;;;;;1.17;0.57;;;;;;;19.40;55.43;100453.34;5088686;28;20202;-71
2022/06/07 02:14:50;;;;;;;2.27;1.13;;;;;;;19.42;55.57;100462.06;5086355;28;20312;-71
2022/06/07 02:17:19;;;;;;;1.90;0.90;;;;;;;19.32;55.72;100467.00;5092182;28;20206;-71
2022/06/07 02:19:52;;;;;;;3.83;0.90;;;;;;;19.27;55.99;100453.31;5086651;28;20318;-71
2022/06/07 02:22:29;;;;;;;3.87;1.00;;;;;;;19.24;55.85;100449.22;5094449;28;20282;-71
2022/06/07 02:24:57;;;;;;;2.37;0.73;;;;;;;19.21;56.69;100449.59;5094172;28;20538;-71
2022/06/07 02:27:26;;;;;;;3.40;1.00;;;;;;;19.17;57.18;100454.56;5093186;28;20225;-70
2022/06/07 02:29:55;;;;;;;4.37;1.10;;;;;;;19.16;57.17;100452.09;5088990;28;20607;-71
2022/06/07 02:32:28;;;;;;;2.00;1.10;;;;;;;19.05;57.98;100452.69;5089809;28;20678;-71
2022/06/07 02:34:58;;;;;;;3.73;1.07;;;;;;;18.91;58.17;100449.13;5089005;28;20733;-70
2022/06/07 02:37:35;;;;;;;3.73;0.90;;;;;;;18.86;58.56;100440.84;5092243;28;20242;-70
2022/06/07 02:40:04;;;;;;;1.93;1.00;;;;;;;18.92;58.67;100439.19;5092791;28;20230;-70
2022/06/07 02:42:41;;;;;;;3.00;1.33;;;;;;;18.94;58.79;100432.59;5096734;28;20629;-70
2022/06/07 02:45:11;;;;;;;1.87;0.90;;;;;;;18.96;58.32;100433.25;5089783;28;20207;-70
2022/06/07 02:47:43;;;;;;;1.77;0.90;;;;;;;18.95;58.66;100436.13;5090638;28;20640;-70
2022/06/07 02:50:17;;;;;;;2.70;1.17;;;;;;;18.81;58.85;100432.59;5092940;28;20795;-70
2022/06/07 02:52:45;;;;;;;4.67;1.40;;;;;;;18.82;59.44;100433.41;5086109;28;20202;-70
2022/06/07 02:55:14;;;;;;;2.27;1.10;;;;;;;18.73;59.45;100430.09;5094734;28;20241;-70
2022/06/07 02:57:43;;;;;;;4.10;1.20;;;;;;;18.67;59.99;100433.56;5088465;28;20210;-70
2022/06/07 03:00:16;;;;;;;1.87;1.10;;;;;;;18.74;59.18;100424.47;5087974;28;20205;-70
2022/06/07 03:02:47;;;;;;;2.67;1.10;;;;;;;18.62;59.35;100430.66;5089704;28;20201;-70
2022/06/07 03:05:16;;;;;;;2.63;1.10;;;;;;;18.62;59.31;100422.59;5090612;28;20213;-70
2022/06/07 03:07:44;;;;;;;4.47;1.50;;;;;;;18.62;59.09;100422.59;5096329;28;20246;-70
2022/06/07 03:10:13;;;;;;;2.60;1.23;;;;;;;18.60;59.04;100425.47;5091904;28;20721;-70
2022/06/07 03:12:50;;;;;;;2.43;1.10;;;;;;;18.66;59.15;100426.53;5102106;28;20210;-70
2022/06/07 03:15:18;;;;;;;2.00;1.00;;;;;;;18.71;59.05;100432.13;5097676;28;20216;-70
2022/06/07 03:17:46;;;;;;;3.83;1.30;;;;;;;18.71;59.06;100440.19;5088970;28;20211;-70
2022/06/07 03:20:14;;;;;;;2.47;1.17;;;;;;;18.75;59.08;100428.00;5094326;28;20596;-70
2022/06/07 03:22:43;;;;;;;3.33;1.30;;;;;;;18.73;59.23;100432.78;5092748;28;20203;-70
2022/06/07 03:25:11;;;;;;;3.40;1.27;;;;;;;18.73;59.39;100435.47;5091711;28;20311;-70
2022/06/07 03:27:40;;;;;;;3.97;1.20;;;;;;;18.69;59.02;100439.56;5092935;28;20220;-70
2022/06/07 03:30:11;;;;;;;3.43;1.17;;;;;;;18.64;59.33;100444.72;5081837;28;20587;-70
2022/06/07 03:32:39;;;;;;;4.73;1.30;;;;;;;18.59;59.84;100445.31;5091779;28;20207;-70
2022/06/07 03:35:08;;;;;;;1.97;1.20;;;;;;;18.64;59.99;100453.59;5093576;28;20207;-70
2022/06/07 03:37:36;;;;;;;2.43;1.10;;;;;;;18.72;59.59;100450.75;5095961;28;20257;-70
2022/06/07 03:40:05;;;;;;;2.30;1.27;;;;;;;18.79;59.53;100450.75;5099437;28;20218;-70
2022/06/07 03:42:34;;;;;;;2.27;1.30;;;;;;;18.81;59.27;100451.38;5097131;28;20235;-70
2022/06/07 03:45:02;;;;;;;2.43;1.23;;;;;;;18.82;60.05;100445.00;5092212;28;20215;-70
2022/06/07 03:47:31;;;;;;;3.20;1.10;;;;;;;18.84;59.40;100450.13;5086487;28;20206;-70
2022/06/07 03:49:58;;;;;;;4.47;1.20;;;;;;;18.73;59.52;100446.19;5084907;28;20238;-70
2022/06/07 03:52:26;;;;;;;4.73;1.27;;;;;;;18.73;60.04;100447.00;5087389;28;20226;-70
2022/06/07 03:54:54;;;;;;;3.47;1.10;;;;;;;18.71;60.28;100445.56;5084074;28;20212;-70
2022/06/07 03:57:22;;;;;;;2.10;0.90;;;;;;;18.65;60.87;100449.03;5085534;28;20305;-70
2022/06/07 03:59:49;;;;;;;4.73;1.10;;;;;;;18.58;61.78;100459.75;5085190;28;20213;-70
2022/06/07 04:02:17;;;;;;;3.20;1.27;;;;;;;18.63;61.48;100457.31;5085394;28;20295;-70
2022/06/07 04:04:46;;;;;;;2.80;1.30;;;;;;;18.71;61.62;100461.69;5083400;28;20203;-71
2022/06/07 04:10:00;;;;;;;2.03;1.07;;;;;;;18.63;62.49;100465.38;5086869;28;20457;-73
2022/06/07 04:12:28;;;;;;;3.07;1.23;;;;;;;18.58;62.71;100458.94;5085675;28;20206;-72
2022/06/07 04:14:55;;;;;;;2.80;1.27;;;;;;;18.63;62.08;100460.00;5084093;28;20224;-73
2022/06/07 04:17:23;;;;;;;3.10;1.13;;;;;;;18.67;62.50;100460.41;5083033;28;20310;-72
2022/06/07 04:19:53;;;;;;;4.20;1.50;;;;;;;18.71;62.35;100459.81;5082448;28;20315;-71
2022/06/07 04:22:21;;;;;;;3.97;1.53;;;;;;;18.78;61.37;100459.84;5080761;28;20222;-70
2022/06/07 04:24:49;;;;;;;3.00;1.20;;;;;;;18.74;61.35;100455.88;5083626;28;20207;-70
2022/06/07 04:27:16;;;;;;;3.10;1.10;;;;;;;18.75;61.30;100458.38;5085846;28;20210;-71
2022/06/07 04:29:44;;;;;;;4.63;1.33;;;;;;;18.76;61.41;100462.72;5079343;28;20326;-70
2022/06/07 04:32:12;;;;;;;4.83;1.30;;;;;;;18.81;60.75;100467.50;5086792;28;20225;-70
2022/06/07 04:34:40;;;;;;;2.07;1.13;;;;;;;18.71;60.66;100467.06;5085910;28;20576;-71
2022/06/07 04:37:09;;;;;;;4.47;1.30;;;;;;;18.73;60.74;100473.88;5084916;28;20213;-71
2022/06/07 04:39:37;;;;;;;2.63;1.10;;;;;;;18.69;60.84;100467.25;5081632;28;20306;-71
2022/06/07 04:42:06;;;;;;;4.43;1.30;;;;;;;18.69;61.29;100472.63;5086641;28;20242;-71
2022/06/07 04:44:33;;;;;;;4.47;1.00;;;;;;;18.71;60.77;100475.13;5088732;28;20576;-71
2022/06/07 04:47:01;;;;;;;3.33;1.33;;;;;;;18.67;61.18;100474.66;5083314;28;20301;-71
2022/06/07 04:49:29;;;;;;;4.27;1.30;;;;;;;18.62;61.19;100471.78;5079309;28;20329;-70
2022/06/07 04:51:57;;;;;;;2.67;1.20;;;;;;;18.61;61.00;100475.47;5081609;28;20294;-70
2022/06/07 04:54:26;;;;;;;2.73;1.20;;;;;;;18.68;60.85;100468.28;5084071;28;20685;-71
2022/06/07 04:56:55;;;;;;;3.30;1.00;;;;;;;18.70;60.72;100473.44;5086234;28;20703;-71
2022/06/07 04:59:23;;;;;;;2.03;1.03;;;;;;;18.76;60.42;100480.69;5088243;28;20226;-71
2022/06/07 05:01:51;;;;;;;3.37;1.03;;;;;;;18.86;60.13;100483.84;5088419;28;20213;-71
2022/06/07 05:04:19;;;;;;;2.43;1.20;;;;;;;18.84;60.27;100488.56;5085347;28;20202;-71
2022/06/07 05:06:47;;;;;;;4.00;1.40;;;;;;;18.83;60.01;100486.91;5086302;28;20207;-71
2022/06/07 05:09:18;;;;;;;2.43;1.23;;;;;;;18.76;60.60;100494.13;5084139;28;20207;-71
2022/06/07 05:11:48;;;;;;;3.17;1.17;;;;;;;18.73;61.09;100494.56;5082549;28;20678;-71
2022/06/07 05:14:16;;;;;;;3.57;1.33;;;;;;;18.77;60.63;100493.94;5082608;28;20213;-71
2022/06/07 05:16:45;;;;;;;3.80;1.40;;;;;;;18.76;61.12;100491.44;5079551;28;20214;-71
2022/06/07 05:19:13;;;;;;;4.57;1.67;;;;;;;18.85;61.39;100495.59;5084803;28;20213;-72
2022/06/07 05:21:42;;;;;;;2.37;1.23;;;;;;;18.95;60.96;100490.69;5083694;28;20647;-71
2022/06/07 05:24:11;;;;;;;3.33;1.23;;;;;;;19.02;61.17;100499.59;5080743;28;20217;-71
2022/06/07 05:26:44;;;;;;;5.60;1.60;;;;;;;19.09;61.10;100487.00;5093867;28;20248;-71
2022/06/07 05:29:21;;;;;;;8.13;1.40;;;;;;;19.25;60.67;100495.72;5086915;28;20234;-71
2022/06/07 05:31:49;;;;;;;4.57;1.37;;;;;;;19.29;61.46;100495.09;5083622;28;20213;-71
2022/06/07 05:34:18;;;;;;;6.30;1.43;;;;;;;19.30;60.96;100495.94;5088253;28;20232;-71
2022/06/07 05:36:46;;;;;;;5.23;1.20;;;;;;;19.32;61.14;100496.56;5086943;28;20252;-71
2022/06/07 05:39:21;;;;;;;3.03;1.40;;;;;;;19.36;60.51;100501.31;5086296;28;20206;-71
2022/06/07 05:41:50;;;;;;;2.43;1.03;;;;;;;19.37;60.46;100497.59;5091654;28;20681;-71
2022/06/07 05:44:19;;;;;;;2.80;1.20;;;;;;;19.46;59.96;100503.63;5081419;28;20289;-71
2022/06/07 05:46:48;;;;;;;3.97;1.13;;;;;;;19.54;59.50;100511.50;5087638;28;20217;-71
2022/06/07 05:49:17;;;;;;;5.23;1.60;;;;;;;19.59;59.35;100503.69;5088567;28;20652;-71
2022/06/07 05:51:45;;;;;;;4.17;1.30;;;;;;;19.67;59.23;100508.84;5089509;28;20759;-71
2022/06/07 05:54:14;;;;;;;4.77;1.50;;;;;;;19.67;59.13;100506.16;5096441;28;20218;-71
2022/06/07 05:56:43;;;;;;;3.37;1.10;;;;;;;19.70;59.07;100508.41;5095263;28;20214;-71
2022/06/07 05:59:10;;;;;;;2.83;1.33;;;;;;;19.71;59.04;100503.88;5098928;28;20242;-71
2022/06/07 06:01:40;;;;;;;2.50;1.07;;;;;;;19.77;58.95;100500.38;5098396;28;20754;-71
2022/06/07 06:04:08;;;;;;;2.17;1.10;;;;;;;19.84;58.63;100509.25;5099645;28;20206;-69
2022/06/07 06:06:37;;;;;;;2.97;1.10;;;;;;;19.91;58.43;100500.16;5096493;28;20206;-69
2022/06/07 06:11:51;;;;;;;2.90;1.10;;;;;;;19.96;58.31;100496.84;5097622;28;20586;-70
2022/06/07 06:14:20;;;;;;;3.03;0.90;;;;;;;20.03;57.86;100499.53;5089720;28;20302;-70
2022/06/07 06:16:50;;;;;;;3.13;1.07;;;;;;;20.12;57.43;100498.28;5084697;28;20206;-70
2022/06/07 06:19:18;;;;;;;4.43;1.70;;;;;;;20.16;57.64;100496.78;5096809;28;20266;-70
2022/06/07 06:21:46;;;;;;;4.63;1.20;;;;;;;20.17;57.39;100501.16;5094450;28;20304;-69
2022/06/07 06:24:14;;;;;;;6.43;1.43;;;;;;;20.18;57.59;100498.25;5093269;28;20199;-70
2022/06/07 06:26:42;;;;;;;3.37;1.17;;;;;;;20.27;56.95;100498.84;5092287;28;20202;-70
2022/06/07 06:29:10;;;;;;;4.23;1.20;;;;;;;20.30;56.97;100493.06;5093694;28;20586;-69
2022/06/07 06:31:40;;;;;;;2.70;1.20;;;;;;;20.35;57.20;100495.97;5099088;28;20308;-70
2022/06/07 06:34:09;;;;;;;4.50;1.13;;;;;;;20.36;56.74;100503.00;5097862;28;20225;-70
2022/06/07 06:36:39;;;;;;;3.80;1.20;;;;;;;20.35;56.93;100504.03;5092183;28;20213;-70
2022/06/07 06:39:18;;;;;;;2.97;1.57;;;;;;;20.26;57.29;100499.88;5090407;28;20214;-70
2022/06/07 06:41:47;;;;;;;3.27;1.13;;;;;;;20.26;57.22;100497.19;5097947;28;20288;-72
2022/06/07 06:44:17;;;;;;;2.83;1.03;;;;;;;20.27;57.29;100501.53;5096978;28;20209;-71
2022/06/07 06:46:48;;;;;;;4.10;1.40;;;;;;;20.34;57.37;100501.53;5090984;28;20643;-74
2022/06/07 06:49:18;;;;;;;6.80;1.37;;;;;;;20.37;58.02;100496.59;5091340;28;20242;-75
2022/06/07 06:51:47;;;;;;;6.83;1.67;;;;;;;20.45;57.28;100499.06;5096512;28;20225;-74
2022/06/07 06:54:16;;;;;;;5.00;1.40;;;;;;;20.52;57.34;100501.72;5092678;28;20207;-75
2022/06/07 06:56:44;;;;;;;10.50;2.03;;;;;;;20.62;57.37;100502.94;5093625;28;20292;-75
2022/06/07 06:59:13;;;;;;;2.30;1.20;;;;;;;20.76;57.22;100497.50;5097425;28;20213;-75
2022/06/07 07:01:42;;;;;;;5.40;1.30;;;;;;;20.88;56.49;100496.59;5100859;28;20220;-75
2022/06/07 07:04:13;;;;;;;11.67;2.40;;;;;;;20.96;55.90;100498.22;5099180;28;20202;-76
2022/06/07 07:06:42;;;;;;;8.20;1.80;;;;;;;21.03;54.93;100497.13;5099864;28;20234;-76
2022/06/07 07:09:11;;;;;;;3.30;1.27;;;;;;;21.10;54.46;100499.81;5096118;28;20233;-76
2022/06/07 07:11:41;;;;;;;4.73;1.23;;;;;;;21.14;53.28;100495.63;5099600;28;20224;-74
2022/06/07 07:14:10;;;;;;;4.03;0.97;;;;;;;21.20;53.08;100497.47;5098381;28;20532;-76
2022/06/07 07:16:48;;;;;;;4.47;1.10;;;;;;;21.26;53.52;100493.13;5091539;28;20234;-72
2022/06/07 07:19:17;;;;;;;2.90;0.93;;;;;;;21.33;53.66;100491.19;5092291;28;20285;-74
2022/06/07 07:21:48;;;;;;;4.27;1.37;;;;;;;21.27;53.13;100487.50;5087433;28;20204;-73
2022/06/07 07:24:18;;;;;;;5.13;1.00;;;;;;;21.32;53.24;100493.06;5087640;28;20203;-73
2022/06/07 07:26:47;;;;;;;4.57;1.17;;;;;;;21.38;52.40;100494.06;5092154;28;20318;-72
2022/06/07 07:29:18;;;;;;;12.27;1.93;;;;;;;21.42;52.62;100502.56;5083634;28;20219;-72
2022/06/07 07:31:46;;;;;;;4.00;1.20;;;;;;;21.40;52.42;100498.19;5089054;28;20317;-72
2022/06/07 07:34:16;;;;;;;4.07;1.30;;;;;;;21.42;52.31;100497.97;5092606;28;20531;-72
2022/06/07 07:36:45;;;;;;;3.43;1.30;;;;;;;21.48;52.81;100496.28;5092221;28;20301;-72
2022/06/07 07:39:22;;;;;;;9.37;1.90;;;;;;;21.48;51.81;100494.41;5090439;28;20472;-72
2022/06/07 07:41:51;;;;;;;4.43;1.70;;;;;;;21.50;51.82;100491.50;5088149;28;20361;-72
2022/06/07 07:44:21;;;;;;;5.40;1.33;;;;;;;21.51;51.94;100490.44;5090439;28;20228;-71
2022/06/07 07:46:51;;;;;;;3.03;0.93;;;;;;;21.54;50.57;100490.84;5094062;28;20259;-71
2022/06/07 07:49:21;;;;;;;3.70;1.07;;;;;;;21.54;49.87;100485.44;5095131;28;21310;-69
2022/06/07 07:51:52;;;;;;;6.60;0.97;;;;;;;21.59;50.32;100484.78;5092097;28;20750;-69
2022/06/07 07:54:23;;;;;;;9.83;1.73;;;;;;;21.65;50.67;100483.88;5096590;28;20293;-70
2022/06/07 07:56:51;;;;;;;10.80;1.90;;;;;;;21.70;50.41;100473.28;5095285;28;20202;-70
2022/06/07 07:59:20;;;;;;;5.17;1.20;;;;;;;21.78;48.45;100473.81;5086057;28;20210;-71
2022/06/07 08:01:49;;;;;;;5.27;1.00;;;;;;;21.82;47.28;100470.66;5090658;28;20285;-71
2022/06/07 08:04:17;;;;;;;9.13;2.60;;;;;;;22.02;46.78;100465.94;5089507;28;20581;-71
2022/06/07 08:06:45;;;;;;;3.40;1.20;;;;;;;21.97;46.78;100466.63;5097649;28;20692;-71
2022/06/07 08:09:14;;;;;;;3.40;1.10;;;;;;;21.99;47.21;100472.59;5091507;28;20293;-71
2022/06/07 08:11:44;;;;;;;3.10;0.77;;;;;;;22.04;46.13;100470.09;5104041;28;20221;-70
2022/06/07 08:14:18;;;;;;;5.87;1.63;;;;;;;22.14;46.73;100469.56;5093926;28;20634;-70
2022/06/07 08:16:46;;;;;;;2.97;0.93;;;;;;;22.21;46.64;100474.91;5090651;28;20655;-70
2022/06/07 08:19:14;;;;;;;4.00;1.00;;;;;;;22.24;46.64;100480.69;5096014;28;20592;-70
2022/06/07 08:21:42;;;;;;;15.77;1.43;;;;;;;22.27;46.33;100464.00;5094965;28;20326;-71
2022/06/07 08:24:10;;;;;;;2.20;0.77;;;;;;;22.36;44.71;100468.06;5092570;28;20508;-71
2022/06/07 08:26:39;;;;;;;4.13;0.80;;;;;;;22.44;43.72;100464.25;5091491;28;20664;-70
2022/06/07 08:29:09;;;;;;;3.80;0.80;;;;;;;22.48;43.12;100463.56;5090356;28;20227;-71
2022/06/07 08:31:37;;;;;;;4.22;0.63;;;;;;;22.57;43.02;100457.88;5097305;28;20254;-71
2022/06/07 08:39:39;;;;;;;3.13;0.70;;;;;;;22.80;43.05;100453.41;5095690;28;20209;-70
2022/06/07 08:42:16;;;;;;;6.65;1.08;;;;;;;22.87;42.85;100448.75;5102350;28;20259;-71
2022/06/07 08:44:48;;;;;;;3.60;1.05;;;;;;;22.83;41.56;100444.03;5092942;28;20199;-71
2022/06/07 08:47:24;;;;;;;6.15;1.30;;;;;;;22.93;41.12;100446.19;5096010;28;20206;-71
2022/06/07 08:49:55;;;;;;;29.45;2.25;;;;;;;23.03;40.96;100441.06;5096714;28;20323;-71
2022/06/07 08:52:26;;;;;;;28.67;2.90;;;;;;;23.12;41.16;100450.50;5096801;28;20257;-71
2022/06/07 08:54:58;;;;;;;34.95;4.68;;;;;;;23.23;41.54;100442.41;5097293;28;20214;-71
2022/06/07 08:57:29;;;;;;;4.45;1.70;;;;;;;23.27;41.52;100434.66;5101439;28;20235;-71
2022/06/07 09:00:08;;;;;;;7.15;1.33;;;;;;;23.38;42.01;100436.56;5095946;28;20214;-71
2022/06/07 09:03:00;;;;;;;4.30;0.85;;;;;;;23.47;41.39;100442.47;5093459;28;20198;-71
2022/06/07 09:05:28;;;;;;;3.35;0.88;;;;;;;23.46;41.82;100436.22;5097437;28;20206;-71
2022/06/07 09:07:58;;;;;;;6.07;1.05;;;;;;;23.46;41.58;100430.81;5099092;28;20246;-71
2022/06/07 09:13:22;;;;;;;5.65;2.25;;;;;;;23.49;42.68;100424.94;5092867;28;20683;-68
2022/06/07 09:15:55;;;;;;;18.88;1.58;;;;;;;23.51;42.95;100425.53;5089252;28;20201;-70
2022/06/07 09:18:27;;;;;;;5.47;1.20;;;;;;;23.63;42.76;100418.28;5097757;28;20738;-69
2022/06/07 09:21:01;;;;;;;7.07;1.20;;;;;;;23.66;42.87;100413.44;5096921;28;20195;-70
2022/06/07 09:23:34;;;;;;;4.18;1.17;;;;;;;23.82;42.43;100423.56;5093094;28;20205;-71
2022/06/07 09:26:15;;;;;;;3.38;0.95;;;;;;;23.93;42.41;100411.88;5091019;28;20660;-72
2022/06/07 09:28:46;;;;;;;3.30;1.20;;;;;;;23.99;41.93;100413.66;5089045;28;20211;-73
2022/06/07 09:31:17;;;;;;;4.78;0.90;;;;;;;23.96;41.98;100409.53;5089017;28;20870;-69
2022/06/07 09:33:52;;;;;;;4.50;0.90;;;;;;;23.90;41.90;100415.09;5090459;28;20780;-69
2022/06/07 09:36:29;;;;;;;10.23;1.20;;;;;;;23.92;42.15;100412.97;5090314;28;20208;-70
2022/06/07 09:39:00;;;;;;;2.45;0.88;;;;;;;23.86;42.52;100419.31;5092116;28;20230;-72
2022/06/07 09:41:37;;;;;;;2.63;0.90;;;;;;;23.82;40.61;100412.75;5087278;28;20682;-72
2022/06/07 09:44:15;;;;;;;2.55;0.80;;;;;;;23.82;41.28;100404.63;5081684;28;20599;-70
2022/06/07 09:46:48;;;;;;;3.08;0.77;;;;;;;23.74;41.23;100415.81;5099915;28;20285;-70
2022/06/07 09:49:33;;;;;;;4.90;0.75;;;;;;;23.79;41.63;100399.66;5090695;28;20230;-71
2022/06/07 09:52:16;;;;;;;4.47;0.95;;;;;;;23.71;41.82;100410.84;5085631;28;20313;-70
2022/06/07 09:54:47;;;;;;;2.50;0.90;;;;;;;23.69;41.49;100408.38;5086991;28;20218;-70
2022/06/07 09:57:32;;;;;;;3.90;0.80;;;;;;;23.71;42.21;100400.84;5087390;28;20675;-70
2022/06/07 10:00:17;;;;;;;3.70;0.90;;;;;;;23.75;42.53;100401.22;5092938;28;20296;-70
2022/06/07 10:03:25;;;;;;;2.38;1.02;;;;;;;23.74;42.75;100403.09;5086775;28;20885;-69
2022/06/07 10:06:04;;;;;;;2.70;1.13;;;;;;;23.63;42.49;100398.50;5088156;28;20667;-70
2022/06/07 10:08:46;;;;;;;2.58;0.90;;;;;;;23.65;41.41;100387.44;5088941;28;20554;-69
2022/06/07 10:11:23;;;;;;;3.20;0.77;;;;;;;23.59;41.72;100389.19;5091265;28;20210;-71
2022/06/07 10:14:03;;;;;;;2.60;0.82;;;;;;;23.70;42.02;100393.78;5086601;28;20226;-70
2022/06/07 10:16:39;;;;;;;3.85;1.02;;;;;;;23.71;42.82;100391.91;5090345;28;20216;-70
2022/06/07 10:19:25;;;;;;;5.43;1.13;;;;;;;23.57;42.60;100389.41;5088805;28;20309;-70
2022/06/07 10:22:19;;;;;;;4.93;1.63;;;;;;;23.58;43.05;100382.13;5092277;28;20206;-70
2022/06/07 10:24:57;;;;;;;9.77;1.63;;;;;;;23.58;43.35;100380.22;5070549;28;20260;-70
2022/06/07 10:27:34;;;;;;;1.90;0.90;;;;;;;23.55;42.74;100386.13;5086354;28;20322;-70
2022/06/07 10:30:14;;;;;;;2.40;0.90;;;;;;;23.54;43.38;100389.91;5083661;28;20234;-70
2022/06/07 10:33:16;;;;;;;2.75;0.93;;;;;;;23.44;43.49;100378.81;5093166;28;20333;-69
2022/06/07 10:35:56;;;;;;;7.30;1.00;;;;;;;23.46;43.37;100382.09;5090565;28;20680;-70
2022/06/07 10:38:40;;;;;;;3.33;0.98;;;;;;;23.45;43.45;100377.75;5085539;28;20565;-70
2022/06/07 10:41:21;;;;;;;4.47;1.00;;;;;;;23.48;43.62;100374.59;5096495;28;20234;-70
2022/06/07 10:43:57;;;;;;;4.35;0.70;;;;;;;23.52;44.54;100370.38;5098724;28;20763;-70
2022/06/07 10:46:36;;;;;;;2.90;0.77;;;;;;;23.65;43.90;100368.50;5099747;28;20206;-70
2022/06/07 10:49:18;;;;;;;1.45;0.70;;;;;;;23.78;43.56;100368.22;5098517;28;20230;-70
2022/06/07 10:57:42;;;;;;;4.38;1.30;;;;;;;24.23;42.33;100366.53;5092065;28;20207;-70
2022/06/07 11:00:24;;;;;;;15.43;1.48;;;;;;;24.40;42.64;100360.34;5091097;28;20211;-75
2022/06/07 11:03:00;;;;;;;3.53;0.93;;;;;;;24.44;43.41;100350.69;5089290;28;20234;-73
2022/06/07 11:11:12;;;;;;;4.07;0.73;;;;;;;24.61;40.72;100351.56;5088980;28;20234;-77
2022/06/07 11:13:50;;;;;;;2.40;0.70;;;;;;;24.55;40.36;100352.50;5074094;28;20246;-76
2022/06/07 11:16:22;;;;;;;3.00;0.88;;;;;;;24.50;41.24;100349.72;5093145;28;20583;-75
2022/06/07 11:18:50;;;;;;;4.63;0.80;;;;;;;24.45;41.31;100353.13;5092257;28;20213;-76
2022/06/07 11:21:28;;;;;;;4.07;0.77;;;;;;;24.46;42.16;100343.09;5093282;28;20203;-76
2022/06/07 11:24:05;;;;;;;3.72;0.95;;;;;;;24.40;42.19;100347.63;5084168;28;20211;-73
2022/06/07 11:26:39;;;;;;;6.07;0.93;;;;;;;24.34;41.46;100343.19;5092362;28;20317;-72
2022/06/07 11:29:09;;;;;;;1.20;0.60;;;;;;;24.34;40.47;100335.88;5088429;28;20226;-76
2022/06/07 11:31:42;;;;;;;6.45;1.20;;;;;;;24.36;41.20;100339.13;5088646;28;20226;-71
2022/06/07 11:34:23;;;;;;;1.17;0.60;;;;;;;24.38;40.42;100337.03;5091842;28;20219;-70
2022/06/07 11:36:57;;;;;;;2.63;0.80;;;;;;;24.29;39.99;100333.03;5084781;28;20209;-69
2022/06/07 11:39:52;;;;;;;2.22;0.80;;;;;;;24.16;40.68;100330.59;5088859;28;20205;-70
2022/06/07 11:42:34;;;;;;;2.47;0.60;;;;;;;24.17;40.76;100328.72;5088978;28;20209;-70
2022/06/07 11:45:19;;;;;;;2.35;0.80;;;;;;;24.36;40.07;100324.81;5088024;28;20240;-70
2022/06/07 11:48:13;;;;;;;2.97;0.90;;;;;;;24.47;38.89;100312.25;5094490;28;20205;-70
2022/06/07 11:50:43;;;;;;;1.75;0.55;;;;;;;24.43;39.02;100313.81;5089465;28;20242;-71
2022/06/07 11:53:23;;;;;;;3.05;0.80;;;;;;;24.42;38.89;100312.97;5092366;28;20596;-71
2022/06/07 11:56:01;;;;;;;1.60;0.60;;;;;;;24.46;37.81;100316.00;5090704;28;20313;-70
2022/06/07 11:58:55;;;;;;;0.77;0.40;;;;;;;24.44;36.94;100326.28;5090260;28;20225;-70
2022/06/07 12:01:32;;;;;;;0.80;0.50;;;;;;;24.37;37.11;100308.28;5089624;28;20210;-70
2022/06/07 12:04:31;;;;;;;1.83;0.60;;;;;;;24.24;37.89;100318.59;5089532;28;20202;-70
2022/06/07 12:07:16;;;;;;;1.83;0.80;;;;;;;24.11;39.05;100313.41;5090696;28;20221;-70
2022/06/07 12:09:49;;;;;;;3.55;0.80;;;;;;;24.07;40.29;100306.84;5092768;28;20217;-71
2022/06/07 12:12:24;;;;;;;1.98;0.68;;;;;;;24.04;41.33;100305.44;5082393;28;20892;-70
2022/06/07 12:15:00;;;;;;;2.08;0.77;;;;;;;24.09;41.42;100302.84;5091313;28;20226;-71
2022/06/07 12:17:31;;;;;;;2.50;0.85;;;;;;;24.20;40.44;100301.94;5095376;28;20204;-69
2022/06/07 12:19:59;;;;;;;2.30;1.50;;;;;;;24.12;40.41;100299.63;5086046;28;20203;-70